createdAt,value
2022-08-04T00:02:06.821Z,19.36
2022-08-04T00:04:54.161Z,19.32
2022-08-04T00:07:44.834Z,19.26
2022-08-04T00:10:16.308Z,19.23
2022-08-04T00:12:48.264Z,19.20
2022-08-04T00:15:17.063Z,19.18
2022-08-04T00:17:46.874Z,19.15
2022-08-04T00:20:18.661Z,19.14
2022-08-04T00:22:48.952Z,19.13
2022-08-04T00:25:16.932Z,19.11
2022-08-04T00:27:44.616Z,19.10
2022-08-04T00:30:12.258Z,19.11
2022-08-04T00:32:41.526Z,19.11
2022-08-04T00:35:10.699Z,19.11
2022-08-04T00:37:38.920Z,19.11
2022-08-04T00:40:18.184Z,19.09
2022-08-04T00:43:07.025Z,19.08
2022-08-04T00:46:15.538Z,19.05
2022-08-04T00:49:01.139Z,19.05
2022-08-04T00:51:48.147Z,19.03
2022-08-04T00:55:11.062Z,19.04
2022-08-04T00:57:53.496Z,19.04
2022-08-04T01:00:22.165Z,19.02
2022-08-04T01:03:08.474Z,19.01
2022-08-04T01:06:18.919Z,19.01
2022-08-04T01:09:05.259Z,19.04
2022-08-04T01:12:08.453Z,19.10
2022-08-04T01:15:10.606Z,19.16
2022-08-04T01:18:06.801Z,19.20
2022-08-04T01:21:00.225Z,19.22
2022-08-04T01:23:52.651Z,19.24
2022-08-04T01:26:42.105Z,19.24
2022-08-04T01:29:15.777Z,19.25
2022-08-04T01:32:05.465Z,19.22
2022-08-04T01:34:42.687Z,19.21
2022-08-04T01:37:23.573Z,19.19
2022-08-04T01:40:01.389Z,19.21
2022-08-04T01:42:32.578Z,19.20
2022-08-04T01:45:06.725Z,19.20
2022-08-04T01:47:36.614Z,19.21
2022-08-04T01:50:07.463Z,19.19
2022-08-04T01:52:36.845Z,19.15
2022-08-04T01:55:06.912Z,19.12
2022-08-04T01:57:45.967Z,19.09
2022-08-04T02:00:17.193Z,19.05
2022-08-04T02:02:45.908Z,19.03
2022-08-04T02:05:18.019Z,19.03
2022-08-04T02:08:02.129Z,19.01
2022-08-04T02:10:29.732Z,19.00
2022-08-04T02:13:11.901Z,19.00
2022-08-04T02:15:50.048Z,19.00
2022-08-04T02:18:27.569Z,19.00
2022-08-04T02:20:58.619Z,19.02
2022-08-04T02:23:31.082Z,19.05
2022-08-04T02:26:03.207Z,19.06
2022-08-04T02:28:36.601Z,19.07
2022-08-04T02:31:17.714Z,19.07
2022-08-04T02:33:55.361Z,19.08
2022-08-04T02:36:36.225Z,19.11
2022-08-04T02:39:05.951Z,19.12
2022-08-04T02:41:34.538Z,19.13
2022-08-04T02:44:05.135Z,19.14
2022-08-04T02:46:34.610Z,19.13
2022-08-04T02:49:04.995Z,19.11
2022-08-04T02:51:37.806Z,19.08
2022-08-04T02:54:07.033Z,19.04
2022-08-04T02:56:37.478Z,19.00
2022-08-04T02:59:09.291Z,18.98
2022-08-04T03:01:37.537Z,18.96
2022-08-04T03:04:34.565Z,18.90
2022-08-04T03:07:24.102Z,18.83
2022-08-04T03:10:36.719Z,18.77
2022-08-04T03:13:32.854Z,18.71
2022-08-04T03:16:08.813Z,18.65
2022-08-04T03:19:20.742Z,18.60
2022-08-04T03:22:08.030Z,18.53
2022-08-04T03:25:09.945Z,18.48
2022-08-04T03:27:53.200Z,18.46
2022-08-04T03:30:29.396Z,18.46
2022-08-04T03:33:20.933Z,18.48
2022-08-04T03:36:31.677Z,18.51
2022-08-04T03:39:19.463Z,18.56
2022-08-04T03:42:04.215Z,18.58
2022-08-04T03:44:44.992Z,18.61
2022-08-04T03:47:46.886Z,18.63
2022-08-04T03:50:41.662Z,18.67
2022-08-04T03:53:27.984Z,18.70
2022-08-04T03:56:23.968Z,18.72
2022-08-04T03:59:14.831Z,18.76
2022-08-04T04:02:11.740Z,18.79
2022-08-04T04:05:01.052Z,18.81
2022-08-04T04:07:40.252Z,18.84
2022-08-04T04:10:47.879Z,18.87
2022-08-04T04:13:51.383Z,18.90
2022-08-04T04:16:50.245Z,18.98
2022-08-04T04:19:50.498Z,19.18
2022-08-04T04:22:38.284Z,19.35
2022-08-04T04:25:25.604Z,19.54
2022-08-04T04:28:43.790Z,19.47
2022-08-04T04:31:26.858Z,19.46
2022-08-04T04:34:06.458Z,19.49
2022-08-04T04:36:58.361Z,19.53
2022-08-04T04:39:36.640Z,19.61
2022-08-04T04:42:36.305Z,19.69
2022-08-04T04:45:17.634Z,19.85
2022-08-04T04:48:08.536Z,19.92
2022-08-04T04:51:09.151Z,19.98
2022-08-04T04:54:01.262Z,20.07
2022-08-04T04:56:37.321Z,20.13
2022-08-04T04:59:09.921Z,20.22
2022-08-04T05:01:51.696Z,20.28
2022-08-04T05:04:52.749Z,20.32
2022-08-04T05:07:53.083Z,20.37
2022-08-04T05:10:58.245Z,20.46
2022-08-04T05:14:37.889Z,20.60
2022-08-04T05:16:31.632Z,20.72
2022-08-04T05:19:33.892Z,20.81
2022-08-04T05:22:10.106Z,20.93
2022-08-04T05:24:43.341Z,21.01
2022-08-04T05:27:25.713Z,21.06
2022-08-04T05:29:56.599Z,21.15
2022-08-04T05:32:28.638Z,21.26
2022-08-04T05:35:00.488Z,21.31
2022-08-04T05:37:30.379Z,21.38
2022-08-04T05:40:02.894Z,21.44
2022-08-04T05:42:35.977Z,21.49
2022-08-04T05:45:04.377Z,21.58
2022-08-04T05:47:33.042Z,21.88
2022-08-04T05:50:03.072Z,22.26
2022-08-04T05:52:31.723Z,22.39
2022-08-04T05:55:00.658Z,22.42
2022-08-04T05:57:29.209Z,22.70
2022-08-04T05:59:59.986Z,23.02
2022-08-04T06:02:28.529Z,23.42
2022-08-04T06:04:57.094Z,23.92
2022-08-04T06:07:26.637Z,24.10
2022-08-04T06:09:54.937Z,24.06
2022-08-04T06:12:40.465Z,23.99
2022-08-04T06:15:09.438Z,23.90
2022-08-04T06:18:33.398Z,23.87
2022-08-04T06:20:31.714Z,23.86
2022-08-04T06:23:06.310Z,23.85
2022-08-04T06:25:39.510Z,23.81
2022-08-04T06:28:08.258Z,23.78
2022-08-04T06:30:37.244Z,23.80
2022-08-04T06:33:14.099Z,23.84
2022-08-04T06:35:42.127Z,23.88
2022-08-04T06:38:09.953Z,23.91
2022-08-04T06:40:40.830Z,23.96
2022-08-04T06:43:08.791Z,24.02
2022-08-04T06:45:38.125Z,24.05
2022-08-04T06:48:06.828Z,24.14
2022-08-04T06:51:25.897Z,24.24
2022-08-04T06:53:25.470Z,24.33
2022-08-04T06:55:54.126Z,24.46
2022-08-04T06:58:22.279Z,24.52
2022-08-04T07:00:50.859Z,24.56
2022-08-04T07:03:19.568Z,24.62
2022-08-04T07:05:48.617Z,24.73
2022-08-04T07:08:16.735Z,24.84
2022-08-04T07:10:45.437Z,24.90
2022-08-04T07:13:13.806Z,24.97
2022-08-04T07:15:45.131Z,25.02
2022-08-04T07:18:12.899Z,25.09
2022-08-04T07:20:43.180Z,25.16
2022-08-04T07:23:17.205Z,25.29
2022-08-04T07:26:11.310Z,25.47
2022-08-04T07:28:40.490Z,25.76
2022-08-04T07:31:33.084Z,26.01
2022-08-04T07:34:17.248Z,26.36
2022-08-04T07:36:52.761Z,26.74
2022-08-04T07:39:27.729Z,27.09
2022-08-04T07:42:01.580Z,27.58
2022-08-04T07:44:32.202Z,28.09
2022-08-04T07:47:01.890Z,28.63
2022-08-04T07:49:52.223Z,28.99
2022-08-04T07:52:18.218Z,29.14
2022-08-04T07:54:45.806Z,29.41
2022-08-04T07:57:20.706Z,29.56
2022-08-04T08:00:01.044Z,29.62
2022-08-04T08:02:29.388Z,29.83
2022-08-04T08:04:57.133Z,30.18
2022-08-04T08:07:24.989Z,30.41
2022-08-04T08:09:52.645Z,30.81
2022-08-04T08:12:38.226Z,31.23
2022-08-04T08:15:10.357Z,31.53
2022-08-04T08:17:58.192Z,31.24
2022-08-04T08:20:31.664Z,30.98
2022-08-04T08:23:01.185Z,30.72
2022-08-04T08:25:31.626Z,30.56
2022-08-04T08:27:59.968Z,30.41
2022-08-04T08:30:31.819Z,30.41
2022-08-04T08:33:12.706Z,30.41
2022-08-04T08:35:54.847Z,30.05
2022-08-04T08:38:43.887Z,29.76
2022-08-04T08:41:26.483Z,29.37
2022-08-04T08:44:30.167Z,29.09
2022-08-04T08:48:06.322Z,28.80
2022-08-04T08:50:52.690Z,28.66
2022-08-04T08:53:34.371Z,28.81
2022-08-04T08:56:30.936Z,29.04
2022-08-04T08:59:16.713Z,29.18
2022-08-04T09:02:03.874Z,29.15
2022-08-04T09:04:54.486Z,29.28
2022-08-04T09:07:32.818Z,29.25
2022-08-04T09:10:17.989Z,29.16
2022-08-04T09:13:05.196Z,29.02
2022-08-04T09:15:36.424Z,28.84
2022-08-04T09:18:27.239Z,28.81
2022-08-04T09:21:10.463Z,28.73
2022-08-04T09:24:34.667Z,28.72
2022-08-04T09:26:59.943Z,28.77
2022-08-04T09:29:36.830Z,28.68
2022-08-04T09:32:22.527Z,28.61
2022-08-04T09:35:07.294Z,28.55
2022-08-04T09:37:49.245Z,28.58
2022-08-04T09:40:31.487Z,28.60
2022-08-04T09:43:59.218Z,28.63
2022-08-04T09:46:47.206Z,28.58
2022-08-04T09:49:18.528Z,28.48
2022-08-04T09:51:57.613Z,28.45
2022-08-04T09:54:31.019Z,28.41
2022-08-04T09:57:34.532Z,28.37
2022-08-04T10:00:06.546Z,28.31
2022-08-04T10:02:48.243Z,28.22
2022-08-04T10:05:22.342Z,28.19
2022-08-04T10:08:15.733Z,28.12
2022-08-04T10:11:00.395Z,28.17
2022-08-04T10:13:34.567Z,28.19
2022-08-04T10:16:43.481Z,28.23
2022-08-04T10:19:26.395Z,28.19
2022-08-04T10:22:27.332Z,28.19
2022-08-04T10:26:02.609Z,28.24
2022-08-04T10:28:06.573Z,28.29
2022-08-04T10:30:37.200Z,28.33
2022-08-04T10:33:26.186Z,28.37
2022-08-04T10:36:07.854Z,28.37
2022-08-04T10:38:49.664Z,28.38
2022-08-04T10:41:30.194Z,28.37
2022-08-04T10:44:42.425Z,28.36
2022-08-04T10:47:16.936Z,28.11
2022-08-04T10:49:52.381Z,28.13
2022-08-04T10:52:38.782Z,28.22
2022-08-04T10:55:23.731Z,28.36
2022-08-04T10:58:17.179Z,28.36
2022-08-04T11:00:46.189Z,28.36
2022-08-04T11:03:20.993Z,28.40
2022-08-04T11:06:04.713Z,28.44
2022-08-04T11:08:48.932Z,28.47
2022-08-04T11:11:22.677Z,28.48
2022-08-04T11:14:00.825Z,28.52
2022-08-04T11:16:51.934Z,28.50
2022-08-04T11:19:44.784Z,28.51
2022-08-04T11:22:39.869Z,28.52
2022-08-04T11:25:22.971Z,28.47
2022-08-04T11:28:20.026Z,28.46
2022-08-04T11:30:53.921Z,28.46
2022-08-04T11:33:54.818Z,28.50
2022-08-04T11:36:39.987Z,28.54
2022-08-04T11:39:30.810Z,28.56
2022-08-04T11:42:07.050Z,28.56
2022-08-04T11:44:43.517Z,28.59
2022-08-04T11:47:32.832Z,28.64
2022-08-04T11:50:08.770Z,28.59
2022-08-04T11:52:39.083Z,28.62
2022-08-04T11:55:09.996Z,28.68
2022-08-04T11:57:38.189Z,28.71
2022-08-04T12:00:17.546Z,28.70
2022-08-04T12:03:12.144Z,28.66
2022-08-04T12:05:59.986Z,28.65
2022-08-04T12:08:49.233Z,28.69
2022-08-04T12:11:28.634Z,28.66
2022-08-04T12:14:21.611Z,28.63
2022-08-04T12:16:58.820Z,28.69
2022-08-04T12:19:43.766Z,28.76
2022-08-04T12:22:29.813Z,28.75
2022-08-04T12:25:13.203Z,28.80
2022-08-04T12:27:53.846Z,28.85
2022-08-04T12:31:01.503Z,28.88
2022-08-04T12:33:17.995Z,28.87
2022-08-04T12:36:10.658Z,28.94
2022-08-04T12:38:47.660Z,28.98
2022-08-04T12:41:22.571Z,29.01
2022-08-04T12:43:50.613Z,29.03
2022-08-04T12:46:26.470Z,29.05
2022-08-04T12:49:00.847Z,29.09
2022-08-04T12:52:06.086Z,29.11
2022-08-04T12:54:28.809Z,29.13
2022-08-04T12:57:01.791Z,29.12
2022-08-04T12:59:30.338Z,29.10
2022-08-04T13:02:10.600Z,29.13
2022-08-04T13:04:51.474Z,29.14
2022-08-04T13:07:22.828Z,29.09
2022-08-04T13:09:51.867Z,29.02
2022-08-04T13:12:25.999Z,28.94
2022-08-04T13:15:10.848Z,28.85
2022-08-04T13:17:51.954Z,28.83
2022-08-04T13:20:34.222Z,28.93
2022-08-04T13:23:09.049Z,28.95
2022-08-04T13:26:43.169Z,28.90
2022-08-04T13:28:29.218Z,28.85
2022-08-04T13:30:59.957Z,28.82
2022-08-04T13:33:41.451Z,28.80
2022-08-04T13:36:10.629Z,28.75
2022-08-04T13:38:41.094Z,28.73
2022-08-04T13:41:09.109Z,28.72
2022-08-04T13:44:19.429Z,28.66
2022-08-04T13:46:51.049Z,28.59
2022-08-04T13:49:54.204Z,28.54
2022-08-04T13:52:11.443Z,28.51
2022-08-04T13:54:45.463Z,28.50
2022-08-04T13:57:19.213Z,28.46
2022-08-04T13:59:56.386Z,28.47
2022-08-04T14:02:39.686Z,28.46
2022-08-04T14:05:30.372Z,28.44
2022-08-04T14:08:04.177Z,28.40
2022-08-04T14:10:32.929Z,28.37
2022-08-04T14:13:04.292Z,28.38
2022-08-04T14:16:02.009Z,28.38
2022-08-04T14:18:32.928Z,28.38
2022-08-04T14:21:10.678Z,28.34
2022-08-04T14:23:47.229Z,28.34
2022-08-04T14:26:32.540Z,28.32
2022-08-04T14:29:35.873Z,28.34
2022-08-04T14:32:12.708Z,28.41
2022-08-04T14:34:45.090Z,28.41
2022-08-04T14:37:18.291Z,28.40
2022-08-04T14:40:18.137Z,28.39
2022-08-04T14:42:55.774Z,28.36
2022-08-04T14:45:31.222Z,28.42
2022-08-04T14:47:59.363Z,28.44
2022-08-04T14:50:36.277Z,28.43
2022-08-04T14:53:09.239Z,28.39
2022-08-04T14:55:38.280Z,28.33
2022-08-04T14:58:34.127Z,28.30
2022-08-04T15:00:57.414Z,28.30
2022-08-04T15:03:26.451Z,28.30
2022-08-04T15:06:05.402Z,28.26
2022-08-04T15:08:36.065Z,28.29
2022-08-04T15:11:03.833Z,28.31
2022-08-04T15:13:32.760Z,28.29
2022-08-04T15:16:07.335Z,28.25
2022-08-04T15:18:37.344Z,28.24
2022-08-04T15:21:06.727Z,28.26
2022-08-04T15:23:39.257Z,28.27
2022-08-04T15:26:13.910Z,28.25
2022-08-04T15:28:47.265Z,28.26
2022-08-04T15:32:05.669Z,28.25
2022-08-04T15:34:03.491Z,28.19
2022-08-04T15:36:56.060Z,28.13
2022-08-04T15:39:44.019Z,28.09
2022-08-04T15:42:22.105Z,28.10
2022-08-04T15:45:04.596Z,28.12
2022-08-04T15:47:32.694Z,28.09
2022-08-04T15:50:11.764Z,28.07
2022-08-04T15:53:01.422Z,28.07
2022-08-04T15:55:40.541Z,28.08
2022-08-04T15:58:08.447Z,28.05
2022-08-04T16:00:48.017Z,28.03
2022-08-04T16:03:58.946Z,27.98
2022-08-04T16:06:22.387Z,27.94
2022-08-04T16:08:58.178Z,27.92
2022-08-04T16:11:31.071Z,27.88
2022-08-04T16:13:59.679Z,27.85
2022-08-04T16:16:31.778Z,27.81
2022-08-04T16:19:06.996Z,27.76
2022-08-04T16:21:48.715Z,27.74
2022-08-04T16:24:35.541Z,27.70
2022-08-04T16:27:08.421Z,27.64
2022-08-04T16:29:40.123Z,27.60
2022-08-04T16:32:25.194Z,27.57
2022-08-04T16:34:56.916Z,27.51
2022-08-04T16:37:38.741Z,27.48
2022-08-04T16:40:35.287Z,27.44
2022-08-04T16:43:13.208Z,27.40
2022-08-04T16:46:02.596Z,27.35
2022-08-04T16:48:35.156Z,27.30
2022-08-04T16:51:10.584Z,27.25
2022-08-04T16:53:52.704Z,27.20
2022-08-04T16:56:29.461Z,27.13
2022-08-04T16:58:57.541Z,27.07
2022-08-04T17:01:32.585Z,27.02
2022-08-04T17:04:07.508Z,26.95
2022-08-04T17:06:40.869Z,26.87
2022-08-04T17:09:15.040Z,26.79
2022-08-04T17:11:44.826Z,26.70
2022-08-04T17:14:13.345Z,26.60
2022-08-04T17:16:42.525Z,26.51
2022-08-04T17:19:23.885Z,26.45
2022-08-04T17:22:04.062Z,26.36
2022-08-04T17:24:36.372Z,26.29
2022-08-04T17:29:52.899Z,26.08
2022-08-04T17:32:22.505Z,25.97
2022-08-04T17:34:53.531Z,25.85
2022-08-04T17:37:39.235Z,25.74
2022-08-04T17:40:13.098Z,25.62
2022-08-04T17:42:42.360Z,25.52
2022-08-04T17:48:08.987Z,25.27
2022-08-04T17:50:43.453Z,25.15
2022-08-04T17:53:13.138Z,25.03
2022-08-04T17:55:43.210Z,24.93
2022-08-04T17:58:20.862Z,24.83
2022-08-04T18:03:59.910Z,24.61
2022-08-04T18:06:27.519Z,24.53
2022-08-04T18:08:59.317Z,24.46
2022-08-04T18:11:56.780Z,24.39
2022-08-04T18:18:19.845Z,24.25
2022-08-04T18:20:21.038Z,24.12
2022-08-04T18:22:50.532Z,24.00
2022-08-04T18:25:23.285Z,23.87
2022-08-04T18:28:14.287Z,23.72
2022-08-04T18:30:54.783Z,23.60
2022-08-04T18:33:39.484Z,23.49
2022-08-04T18:39:13.459Z,23.24
2022-08-04T18:42:01.602Z,23.11
2022-08-04T18:44:32.678Z,22.98
2022-08-04T18:47:23.075Z,22.87
2022-08-04T18:51:01.835Z,22.76
2022-08-04T18:52:45.114Z,22.64
2022-08-04T18:55:55.994Z,22.53
2022-08-04T18:58:07.834Z,22.41
2022-08-04T19:00:45.826Z,22.30
2022-08-04T19:03:16.479Z,22.19
2022-08-04T19:05:51.405Z,22.12
2022-08-04T19:08:34.551Z,22.08
2022-08-04T19:11:36.958Z,22.03
2022-08-04T19:13:58.054Z,21.98
2022-08-04T19:16:28.357Z,21.93
2022-08-04T19:18:57.388Z,21.85
2022-08-04T19:21:58.738Z,21.77
2022-08-04T19:24:32.642Z,21.69
2022-08-04T19:27:07.153Z,21.62
2022-08-04T19:29:41.243Z,21.56
2022-08-04T19:32:16.140Z,21.52
2022-08-04T19:34:47.448Z,21.57
2022-08-04T19:37:58.596Z,21.60
2022-08-04T19:40:07.403Z,21.61
2022-08-04T19:42:35.864Z,21.63
2022-08-04T19:45:05.075Z,21.64
2022-08-04T19:48:17.906Z,21.67
2022-08-04T19:50:20.663Z,21.67
2022-08-04T19:52:52.906Z,21.67
2022-08-04T19:55:36.679Z,21.68
2022-08-04T19:58:08.326Z,21.68
2022-08-04T20:00:38.722Z,21.68
2022-08-04T20:03:09.966Z,21.67
2022-08-04T20:05:53.562Z,21.65
2022-08-04T20:08:27.844Z,21.62
2022-08-04T20:10:57.850Z,21.60
2022-08-04T20:13:30.948Z,21.59
2022-08-04T20:16:28.883Z,21.57
2022-08-04T20:18:56.662Z,21.57
2022-08-04T20:21:53.469Z,21.56
2022-08-04T20:24:38.645Z,21.54
2022-08-04T20:27:04.945Z,21.51
2022-08-04T20:29:40.245Z,21.48
2022-08-04T20:32:09.827Z,21.43
2022-08-04T20:34:40.200Z,21.39
2022-08-04T20:37:10.385Z,21.35
2022-08-04T20:39:38.494Z,21.30
2022-08-04T20:42:06.798Z,21.25
2022-08-04T20:44:46.255Z,21.19
2022-08-04T20:47:14.556Z,21.14
2022-08-04T20:49:42.643Z,21.10
2022-08-04T20:52:16.326Z,21.08
2022-08-04T20:54:49.231Z,21.07
2022-08-04T20:57:49.721Z,21.06
2022-08-04T21:00:13.464Z,21.03
2022-08-04T21:02:41.424Z,21.03
2022-08-04T21:05:09.580Z,21.02
2022-08-04T21:07:43.728Z,21.00
2022-08-04T21:10:11.825Z,20.97
2022-08-04T21:12:40.519Z,20.93
2022-08-04T21:15:14.466Z,20.90
2022-08-04T21:17:57.455Z,20.86
2022-08-04T21:20:31.359Z,20.84
2022-08-04T21:23:02.371Z,20.81
2022-08-04T21:25:31.650Z,20.78
2022-08-04T21:28:04.320Z,20.75
2022-08-04T21:30:37.076Z,20.72
2022-08-04T21:33:22.072Z,20.67
2022-08-04T21:35:54.323Z,20.63
2022-08-04T21:38:28.051Z,20.59
2022-08-04T21:40:58.875Z,20.55
2022-08-04T21:43:42.624Z,20.50
2022-08-04T21:46:11.403Z,20.43
2022-08-04T21:48:39.606Z,20.40
2022-08-04T21:51:57.791Z,20.38
2022-08-04T21:54:15.065Z,20.37
2022-08-04T21:59:33.510Z,20.43
2022-08-04T22:02:13.040Z,20.46
2022-08-04T22:04:40.696Z,20.50
2022-08-04T22:07:08.358Z,20.54
2022-08-04T22:09:41.150Z,20.59
2022-08-04T22:12:12.029Z,20.63
2022-08-04T22:14:40.365Z,20.68
2022-08-04T22:17:13.848Z,20.69
2022-08-04T22:19:55.052Z,20.71
2022-08-04T22:22:26.757Z,20.70
2022-08-04T22:25:01.363Z,20.68
2022-08-04T22:27:55.333Z,20.66
2022-08-04T22:30:23.591Z,20.67
2022-08-04T22:32:51.780Z,20.68
2022-08-04T22:35:35.808Z,20.68
2022-08-04T22:38:28.032Z,20.66
2022-08-04T22:41:00.258Z,20.63
2022-08-04T22:43:32.441Z,20.63
2022-08-04T22:46:06.396Z,20.63
2022-08-04T22:48:39.621Z,20.63
2022-08-04T22:51:12.875Z,20.63
2022-08-04T22:53:42.029Z,20.63
2022-08-04T22:56:37.738Z,20.62
2022-08-04T22:59:10.006Z,20.60
2022-08-04T23:02:00.144Z,20.56
2022-08-04T23:04:27.263Z,20.55
2022-08-04T23:06:54.976Z,20.56
2022-08-04T23:09:49.602Z,20.55
2022-08-04T23:12:27.482Z,20.56
2022-08-04T23:14:58.798Z,20.55
2022-08-04T23:17:28.127Z,20.55
2022-08-04T23:19:58.648Z,20.54
2022-08-04T23:22:41.580Z,20.53
2022-08-04T23:25:15.124Z,20.50
2022-08-04T23:27:51.534Z,20.48
2022-08-04T23:30:24.441Z,20.45
2022-08-04T23:32:57.311Z,20.42
2022-08-04T23:35:24.915Z,20.40
2022-08-04T23:37:57.270Z,20.36
2022-08-04T23:40:33.051Z,20.33
2022-08-04T23:43:12.295Z,20.29
2022-08-04T23:46:04.126Z,20.24
2022-08-04T23:48:35.433Z,20.18
2022-08-04T23:51:10.353Z,20.12
2022-08-04T23:54:03.346Z,20.08
2022-08-04T23:56:33.935Z,20.03
2022-08-04T23:59:03.893Z,19.97
